createdAt,value
2018-01-02T01:45:22.992Z,3.70
2018-01-02T02:56:17.175Z,2.87
2018-01-02T02:58:57.822Z,2.40
2018-01-02T03:01:31.464Z,2.77
2018-01-02T03:04:01.764Z,3.60
2018-01-02T03:06:40.703Z,2.00
2018-01-02T03:09:37.964Z,2.20
2018-01-02T03:15:03.282Z,2.27
2018-01-02T03:17:50.571Z,3.50
2018-01-02T03:20:23.031Z,3.10
2018-01-02T03:23:05.969Z,4.20
2018-01-02T03:28:35.958Z,2.73
2018-01-02T03:33:41.410Z,3.10
2018-01-02T03:50:57.068Z,3.47
2018-01-02T03:53:47.397Z,3.87
2018-01-02T03:56:29.186Z,4.23
2018-01-02T04:05:00.852Z,3.57
2018-01-02T04:43:45.865Z,3.90
2018-01-02T05:02:02.832Z,3.83
2018-01-02T05:26:07.209Z,4.47
2018-01-02T08:57:56.214Z,6.33
2018-01-02T09:00:23.902Z,3.97
2018-01-02T09:03:03.071Z,3.80
2018-01-02T09:05:32.229Z,3.90
2018-01-02T09:08:00.111Z,4.17
2018-01-02T09:10:34.057Z,4.60
2018-01-02T10:25:56.367Z,2.07
2018-01-02T10:37:31.350Z,2.60
2018-01-02T10:40:00.821Z,1.23
2018-01-02T10:45:21.993Z,1.70
2018-01-02T12:29:25.579Z,2.10
2018-01-02T12:32:12.347Z,3.30
2018-01-02T12:49:54.208Z,1.77
2018-01-02T13:16:59.225Z,3.63
2018-01-02T13:19:39.547Z,2.90
2018-01-02T13:22:18.745Z,3.77
2018-01-02T14:22:39.537Z,4.73
2018-01-02T14:25:07.332Z,4.70
2018-01-02T14:27:36.542Z,4.47
2018-01-02T14:30:07.889Z,5.70
2018-01-02T14:32:35.614Z,4.23
2018-01-02T14:35:03.389Z,4.30
2018-01-02T14:37:34.069Z,4.00
2018-01-02T14:40:05.078Z,4.00
2018-01-02T14:42:33.349Z,4.30
2018-01-02T14:45:02.326Z,4.03
2018-01-02T14:47:30.096Z,4.70
2018-01-02T14:49:57.833Z,3.90
2018-01-02T14:52:25.543Z,3.37
2018-01-02T14:54:54.727Z,3.93
2018-01-02T14:57:23.111Z,3.10
2018-01-02T14:59:50.760Z,3.13
2018-01-02T15:02:18.399Z,3.77
2018-01-02T15:04:46.134Z,3.63
2018-01-02T15:07:13.777Z,3.73
2018-01-02T15:09:41.491Z,4.10
2018-01-02T15:12:10.395Z,4.27
2018-01-02T15:14:38.145Z,5.47
2018-01-02T15:17:06.218Z,5.17
2018-01-02T15:19:35.226Z,4.53
2018-01-02T15:22:05.686Z,4.87
2018-01-02T15:24:33.437Z,5.33
2018-01-02T15:27:01.117Z,6.53
2018-01-02T15:29:28.877Z,6.57
2018-01-02T15:31:56.635Z,7.53
2018-01-02T15:34:24.258Z,7.13
2018-01-02T15:36:51.999Z,6.23
2018-01-02T15:39:19.841Z,6.17
2018-01-02T15:41:47.533Z,10.87
2018-01-02T15:44:15.483Z,11.70
2018-01-02T15:46:43.093Z,13.43
2018-01-02T15:49:11.262Z,15.47
2018-01-02T15:51:39.014Z,12.40
2018-01-02T15:54:06.817Z,13.20
2018-01-02T15:56:34.533Z,10.13
2018-01-02T15:59:02.254Z,11.40
2018-01-02T16:01:30.500Z,9.23
2018-01-02T16:03:58.677Z,6.67
2018-01-02T16:06:26.408Z,7.40
2018-01-02T16:08:54.704Z,6.20
2018-01-02T16:11:22.363Z,6.63
2018-01-02T16:13:51.674Z,7.53
2018-01-02T16:16:19.841Z,7.40
2018-01-02T16:18:54.557Z,5.23
2018-01-02T16:21:22.284Z,6.27
2018-01-02T16:23:52.959Z,4.57
2018-01-02T16:26:21.856Z,6.40
2018-01-02T16:28:49.829Z,6.57
2018-01-02T16:31:17.559Z,9.70
2018-01-02T16:33:45.259Z,10.40
2018-01-02T16:36:14.431Z,7.37
2018-01-02T16:38:46.997Z,8.63
2018-01-02T16:41:22.773Z,5.70
2018-01-02T16:43:51.754Z,6.87
2018-01-02T16:46:24.146Z,5.70
2018-01-02T16:48:53.550Z,5.77
2018-01-02T16:51:23.556Z,6.30
2018-01-02T16:53:51.671Z,6.53
2018-01-02T17:07:32.958Z,9.10
2018-01-02T18:07:47.099Z,8.27
2018-01-02T18:12:58.718Z,7.93
2018-01-02T18:15:26.825Z,7.10
2018-01-02T18:17:54.726Z,7.70
2018-01-02T18:20:23.721Z,8.70
2018-01-02T18:23:17.355Z,8.03
2018-01-02T18:28:35.815Z,8.57
2018-01-02T18:37:55.022Z,7.00
2018-01-02T18:40:27.055Z,6.37
2018-01-02T18:45:44.964Z,31.50
2018-01-02T18:48:18.512Z,15.67
2018-01-02T18:50:53.867Z,19.27
2018-01-02T18:53:28.492Z,9.70
2018-01-02T18:55:56.245Z,6.80
2018-01-02T18:58:24.047Z,10.17
2018-01-02T19:00:52.002Z,7.90
2018-01-02T19:03:19.778Z,8.40
2018-01-02T19:05:56.248Z,8.30
2018-01-02T19:08:37.422Z,6.90
2018-01-02T19:11:06.797Z,6.00
2018-01-02T19:13:37.688Z,5.30
2018-01-02T19:16:07.774Z,7.03
2018-01-02T19:21:51.660Z,6.33
2018-01-02T19:24:20.469Z,11.60
2018-01-02T19:26:48.324Z,6.53
2018-01-02T19:29:16.075Z,6.20
2018-01-02T19:31:47.719Z,5.27
2018-01-02T19:34:18.147Z,4.10
2018-01-02T19:36:46.346Z,5.13
2018-01-02T19:39:36.281Z,4.10
2018-01-02T21:17:42.964Z,7.57
2018-01-02T21:20:11.475Z,8.37
2018-01-02T21:22:40.461Z,8.40
2018-01-02T21:25:09.207Z,11.17
2018-01-02T21:27:37.900Z,9.07
2018-01-02T21:30:05.616Z,9.03
2018-01-02T21:32:35.116Z,10.77
2018-01-02T21:35:06.609Z,9.77
2018-01-02T21:37:34.907Z,11.23
2018-01-02T21:40:02.667Z,11.87
2018-01-02T21:42:31.785Z,11.17
